createdAt,value
2023-04-11T00:02:13.122Z,53.35
2023-04-11T00:05:21.527Z,48.55
2023-04-11T00:08:27.274Z,53.00
2023-04-11T00:11:32.713Z,59.63
2023-04-11T00:14:38.596Z,54.25
2023-04-11T00:17:45.961Z,47.80
2023-04-11T00:20:53.857Z,59.92
2023-04-11T00:23:59.206Z,64.30
2023-04-11T00:27:04.819Z,58.88
2023-04-11T00:30:10.726Z,59.38
2023-04-11T00:33:17.147Z,56.17
2023-04-11T00:36:25.005Z,52.42
2023-04-11T00:39:31.383Z,49.78
2023-04-11T00:42:36.925Z,53.60
2023-04-11T00:45:42.851Z,62.13
2023-04-11T00:48:48.425Z,52.53
2023-04-11T00:51:56.422Z,46.50
2023-04-11T00:55:01.912Z,51.10
2023-04-11T00:58:09.721Z,54.25
2023-04-11T01:01:17.001Z,46.60
2023-04-11T01:04:22.519Z,49.10
2023-04-11T01:07:31.881Z,57.08
2023-04-11T01:10:37.838Z,53.90
2023-04-11T01:13:44.761Z,54.38
2023-04-11T01:16:51.101Z,49.50
2023-04-11T01:19:56.773Z,57.20
2023-04-11T01:23:06.428Z,50.42
2023-04-11T01:26:14.677Z,58.65
2023-04-11T01:29:20.065Z,43.70
2023-04-11T01:32:25.333Z,50.30
2023-04-11T01:35:30.660Z,46.78
2023-04-11T01:38:36.904Z,48.08
2023-04-11T01:41:45.125Z,51.53
2023-04-11T01:44:51.391Z,59.28
2023-04-11T01:47:57.127Z,48.25
2023-04-11T01:51:02.580Z,51.28
2023-04-11T01:54:08.311Z,52.55
2023-04-11T01:57:16.601Z,48.58
2023-04-11T02:00:22.428Z,48.92
2023-04-11T02:03:28.041Z,51.25
2023-04-11T02:06:33.590Z,40.80
2023-04-11T02:09:39.696Z,48.08
2023-04-11T02:12:47.743Z,40.22
2023-04-11T02:15:53.297Z,47.65
2023-04-11T02:18:59.392Z,40.28
2023-04-11T02:22:06.488Z,40.03
2023-04-11T02:25:12.221Z,36.60
2023-04-11T02:28:20.236Z,42.10
2023-04-11T02:31:25.794Z,40.30
2023-04-11T02:34:31.187Z,44.40
2023-04-11T02:37:36.850Z,44.53
2023-04-11T02:40:42.349Z,40.10
2023-04-11T02:43:50.251Z,45.13
2023-04-11T02:46:55.811Z,38.35
2023-04-11T02:50:02.673Z,40.80
2023-04-11T02:53:15.236Z,41.80
2023-04-11T02:56:25.963Z,35.33
2023-04-11T02:59:37.473Z,39.22
2023-04-11T03:02:46.449Z,29.38
2023-04-11T03:05:51.756Z,30.65
2023-04-11T03:09:01.659Z,22.83
2023-04-11T03:12:07.325Z,31.58
2023-04-11T03:15:19.444Z,20.50
2023-04-11T03:18:26.075Z,28.90
2023-04-11T03:21:32.177Z,23.02
2023-04-11T03:24:39.623Z,24.52
2023-04-11T03:27:45.713Z,28.02
2023-04-11T03:30:54.747Z,28.30
2023-04-11T03:34:01.946Z,23.52
2023-04-11T03:37:08.160Z,28.60
2023-04-11T03:40:15.790Z,32.20
2023-04-11T03:43:26.105Z,22.60
2023-04-11T03:46:34.807Z,26.05
2023-04-11T03:49:40.212Z,25.13
2023-04-11T03:52:45.702Z,27.00
2023-04-11T03:55:54.033Z,30.33
2023-04-11T03:59:03.868Z,26.02
2023-04-11T04:02:22.361Z,26.98
2023-04-11T04:05:30.089Z,29.38
2023-04-11T04:08:36.361Z,32.70
2023-04-11T04:11:41.862Z,26.73
2023-04-11T04:14:47.482Z,27.45
2023-04-11T04:17:57.688Z,25.98
2023-04-11T04:21:21.432Z,28.20
2023-04-11T04:24:30.232Z,30.65
2023-04-11T04:27:54.335Z,30.42
2023-04-11T04:31:02.797Z,31.20
2023-04-11T04:34:22.045Z,33.08
2023-04-11T04:37:29.468Z,28.95
2023-04-11T04:40:43.223Z,31.92
2023-04-11T04:43:49.409Z,30.85
2023-04-11T04:46:59.349Z,32.10
2023-04-11T04:50:09.877Z,31.53
2023-04-11T04:53:15.357Z,33.63
2023-04-11T04:56:26.588Z,33.67
2023-04-11T04:59:32.245Z,33.15
2023-04-11T05:02:46.374Z,32.90
2023-04-11T05:05:55.067Z,35.78
2023-04-11T05:12:07.213Z,34.53
2023-04-11T05:15:15.524Z,29.67
2023-04-11T05:18:21.108Z,35.53
2023-04-11T05:21:28.986Z,32.75
2023-04-11T05:24:34.336Z,33.60
2023-04-11T05:27:44.254Z,39.90
2023-04-11T05:30:49.959Z,34.55
2023-04-11T05:33:55.743Z,33.30
2023-04-11T05:37:05.051Z,34.00
2023-04-11T05:40:11.831Z,30.45
2023-04-11T05:43:17.941Z,32.70
2023-04-11T05:46:23.447Z,36.63
2023-04-11T05:49:28.826Z,37.17
2023-04-11T05:52:36.617Z,34.00
2023-04-11T05:55:42.169Z,33.50
2023-04-11T05:58:47.662Z,37.80
2023-04-11T06:01:55.060Z,37.92
2023-04-11T06:05:00.358Z,39.08
2023-04-11T06:08:10.828Z,37.95
2023-04-11T06:11:16.382Z,37.70
2023-04-11T06:14:21.902Z,38.65
2023-04-11T06:17:27.153Z,38.25
2023-04-11T06:20:32.553Z,36.90
2023-04-11T06:23:40.617Z,39.58
2023-04-11T06:26:45.962Z,40.13
2023-04-11T06:29:51.470Z,37.15
2023-04-11T06:32:56.853Z,33.95
2023-04-11T06:36:04.166Z,32.65
2023-04-11T06:39:13.455Z,36.95
2023-04-11T06:42:19.060Z,40.40
2023-04-11T06:45:24.280Z,39.63
2023-04-11T06:48:30.972Z,44.67
2023-04-11T06:51:36.081Z,38.35
2023-04-11T06:54:44.326Z,31.95
2023-04-11T06:57:49.716Z,28.00
2023-04-11T07:00:54.820Z,32.53
2023-04-11T07:04:00.592Z,33.53
2023-04-11T07:07:06.963Z,34.58
2023-04-11T07:10:15.605Z,28.33
2023-04-11T07:13:21.562Z,28.48
2023-04-11T07:16:27.547Z,36.75
2023-04-11T07:19:32.722Z,30.27
2023-04-11T07:22:38.313Z,29.90
2023-04-11T07:25:46.384Z,29.70
2023-04-11T07:28:51.619Z,27.48
2023-04-11T07:31:57.234Z,29.23
2023-04-11T07:35:02.542Z,33.22
2023-04-11T07:38:09.841Z,34.05
2023-04-11T07:41:17.843Z,26.90
2023-04-11T07:44:23.936Z,31.20
2023-04-11T07:47:29.745Z,32.55
2023-04-11T07:50:35.031Z,28.38
2023-04-11T07:53:40.864Z,27.75
2023-04-11T07:56:48.609Z,28.17
2023-04-11T07:59:53.716Z,25.30
2023-04-11T08:03:00.207Z,29.27
2023-04-11T08:06:05.765Z,23.73
2023-04-11T08:09:11.333Z,27.35
2023-04-11T08:12:19.870Z,35.75
2023-04-11T08:18:31.637Z,29.23
2023-04-11T08:21:37.072Z,27.98
2023-04-11T08:24:42.394Z,27.02
2023-04-11T08:27:50.779Z,27.73
2023-04-11T08:30:58.774Z,30.05
2023-04-11T08:34:06.666Z,27.33
2023-04-11T08:37:12.589Z,26.88
2023-04-11T08:40:18.362Z,25.45
2023-04-11T08:43:26.709Z,28.13
2023-04-11T08:46:33.557Z,26.77
2023-04-11T08:49:38.784Z,27.25
2023-04-11T08:52:45.411Z,25.73
2023-04-11T08:55:51.161Z,26.50
2023-04-11T08:58:58.994Z,23.90
2023-04-11T09:02:09.643Z,28.38
2023-04-11T09:05:27.429Z,22.85
2023-04-11T09:08:40.678Z,34.38
2023-04-11T09:11:55.297Z,27.02
2023-04-11T09:15:20.252Z,30.27
2023-04-11T09:18:35.225Z,28.67
2023-04-11T09:21:51.527Z,26.27
2023-04-11T09:25:05.366Z,28.58
2023-04-11T09:28:11.095Z,30.85
2023-04-11T09:31:19.451Z,26.00
2023-04-11T09:34:27.893Z,22.40
2023-04-11T09:37:44.828Z,23.58
2023-04-11T09:40:49.971Z,26.15
2023-04-11T09:43:56.706Z,23.70
2023-04-11T09:47:04.916Z,23.98
2023-04-11T09:50:11.340Z,23.65
2023-04-11T09:53:16.496Z,23.88
2023-04-11T09:56:22.472Z,23.45
2023-04-11T09:59:29.399Z,26.50
2023-04-11T10:02:37.508Z,25.27
2023-04-11T10:08:48.121Z,20.00
2023-04-11T10:11:53.567Z,23.58
2023-04-11T10:14:59.846Z,21.60
2023-04-11T10:18:14.101Z,23.15
2023-04-11T10:21:34.360Z,21.85
2023-04-11T10:24:39.707Z,26.70
2023-04-11T10:27:53.823Z,19.05
2023-04-11T10:31:04.657Z,18.40
2023-04-11T10:34:18.735Z,22.63
2023-04-11T10:37:34.540Z,21.45
2023-04-11T10:40:39.907Z,20.58
2023-04-11T10:43:45.391Z,22.05
2023-04-11T10:46:52.273Z,24.50
2023-04-11T10:50:00.966Z,20.00
2023-04-11T10:53:07.029Z,22.05
2023-04-11T10:56:12.284Z,23.10
2023-04-11T10:59:32.402Z,25.42
2023-04-11T11:02:42.517Z,26.95
2023-04-11T11:05:52.142Z,25.65
2023-04-11T11:08:58.241Z,20.83
2023-04-11T11:12:09.772Z,18.98
2023-04-11T11:15:16.284Z,17.40
2023-04-11T11:18:21.579Z,19.92
2023-04-11T11:21:30.700Z,17.45
2023-04-11T11:24:36.064Z,17.33
2023-04-11T11:27:41.483Z,19.20
2023-04-11T11:30:54.865Z,16.67
2023-04-11T11:34:21.369Z,14.93
2023-04-11T11:37:29.204Z,13.85
2023-04-11T11:43:42.349Z,14.90
2023-04-11T11:47:02.523Z,14.15
2023-04-11T11:50:08.490Z,16.98
2023-04-11T11:53:19.402Z,15.32
2023-04-11T11:56:24.769Z,14.07
2023-04-11T11:59:30.656Z,15.85
2023-04-11T12:02:37.468Z,15.02
2023-04-11T12:05:44.859Z,16.42
2023-04-11T12:08:54.295Z,13.38
2023-04-11T12:12:00.126Z,18.55
2023-04-11T12:15:05.594Z,16.02
2023-04-11T12:18:11.357Z,15.85
2023-04-11T12:21:18.034Z,16.05
2023-04-11T12:24:26.216Z,17.27
2023-04-11T12:30:38.822Z,13.20
2023-04-11T12:33:47.327Z,15.15
2023-04-11T12:36:52.493Z,16.38
2023-04-11T12:40:00.968Z,17.17
2023-04-11T12:43:06.615Z,16.98
2023-04-11T12:46:12.106Z,15.68
2023-04-11T12:49:17.136Z,16.02
2023-04-11T12:52:22.823Z,16.95
2023-04-11T12:55:31.325Z,15.50
2023-04-11T12:58:36.797Z,19.85
2023-04-11T13:01:42.329Z,12.18
2023-04-11T13:04:47.931Z,13.20
2023-04-11T13:07:53.395Z,13.30
2023-04-11T13:11:01.134Z,15.02
2023-04-11T13:14:06.652Z,12.27
2023-04-11T13:17:12.529Z,10.93
2023-04-11T13:20:17.946Z,12.90
2023-04-11T13:23:23.506Z,13.45
2023-04-11T13:26:31.939Z,14.88
2023-04-11T13:29:37.295Z,9.57
2023-04-11T13:32:42.676Z,10.57
2023-04-11T13:35:48.197Z,11.23
2023-04-11T13:38:54.065Z,12.00
2023-04-11T13:42:01.873Z,9.77
2023-04-11T13:45:07.821Z,10.90
2023-04-11T13:48:12.969Z,9.40
2023-04-11T13:51:18.438Z,14.60
2023-04-11T13:54:23.844Z,10.60
2023-04-11T13:57:31.875Z,11.35
2023-04-11T14:00:37.398Z,9.85
2023-04-11T14:03:43.470Z,11.02
2023-04-11T14:06:48.918Z,15.52
2023-04-11T14:09:54.632Z,16.25
2023-04-11T14:13:02.737Z,12.43
2023-04-11T14:16:09.658Z,11.50
2023-04-11T14:19:15.541Z,12.15
2023-04-11T14:22:20.909Z,10.23
2023-04-11T14:25:26.833Z,11.15
2023-04-11T14:28:35.180Z,12.25
2023-04-11T14:31:40.554Z,10.00
2023-04-11T14:34:46.961Z,11.85
2023-04-11T14:37:52.590Z,10.82
2023-04-11T14:40:58.240Z,13.23
2023-04-11T14:44:06.252Z,14.48
2023-04-11T14:47:30.533Z,17.05
2023-04-11T14:50:35.905Z,17.83
2023-04-11T14:53:41.670Z,11.63
2023-04-11T14:56:48.469Z,11.95
2023-04-11T14:59:56.738Z,15.25
2023-04-11T15:06:07.611Z,19.67
2023-04-11T15:09:12.853Z,12.80
2023-04-11T15:12:18.482Z,15.45
2023-04-11T15:15:26.550Z,16.48
2023-04-11T15:21:38.678Z,16.02
2023-04-11T15:24:44.141Z,14.02
2023-04-11T15:27:49.416Z,14.93
2023-04-11T15:30:58.176Z,15.48
2023-04-11T15:34:04.457Z,16.58
2023-04-11T15:37:11.995Z,14.57
2023-04-11T15:40:18.190Z,13.90
2023-04-11T15:43:23.899Z,14.73
2023-04-11T15:46:32.012Z,15.90
2023-04-11T15:49:37.350Z,13.25
2023-04-11T15:52:43.165Z,13.70
2023-04-11T15:55:49.497Z,16.05
2023-04-11T15:58:54.638Z,14.57
2023-04-11T16:02:02.671Z,14.90
2023-04-11T16:05:08.891Z,14.70
2023-04-11T16:08:14.213Z,17.65
2023-04-11T16:11:19.582Z,16.77
2023-04-11T16:14:25.535Z,17.30
2023-04-11T16:17:34.068Z,20.50
2023-04-11T16:20:39.691Z,13.57
2023-04-11T16:23:45.085Z,20.20
2023-04-11T16:26:50.386Z,16.48
2023-04-11T16:30:00.192Z,21.60
2023-04-11T16:33:08.398Z,26.10
2023-04-11T16:36:14.147Z,26.88
2023-04-11T16:39:19.629Z,27.73
2023-04-11T16:42:26.063Z,20.13
2023-04-11T16:45:31.496Z,33.97
2023-04-11T16:48:39.466Z,26.00
2023-04-11T16:51:44.863Z,28.67
2023-04-11T16:54:50.424Z,32.20
2023-04-11T16:57:55.504Z,45.38
2023-04-11T17:01:00.847Z,39.85
2023-04-11T17:04:09.211Z,35.67
2023-04-11T17:07:14.504Z,27.65
2023-04-11T17:10:20.050Z,30.08
2023-04-11T17:13:25.353Z,34.28
2023-04-11T17:16:31.038Z,27.05
2023-04-11T17:19:39.010Z,33.58
2023-04-11T17:22:44.813Z,30.48
2023-04-11T17:25:53.186Z,36.42
2023-04-11T17:32:04.413Z,50.13
2023-04-11T17:35:12.905Z,39.60
2023-04-11T17:38:18.176Z,41.15
2023-04-11T17:41:23.969Z,38.53
2023-04-11T17:44:29.413Z,36.33
2023-04-11T17:47:34.634Z,43.42
2023-04-11T17:50:46.557Z,30.48
2023-04-11T17:53:52.471Z,49.90
2023-04-11T17:56:57.880Z,29.88
2023-04-11T18:00:19.896Z,35.53
2023-04-11T18:03:25.973Z,41.58
2023-04-11T18:06:34.753Z,32.53
2023-04-11T18:09:41.066Z,33.10
2023-04-11T18:12:46.830Z,41.78
2023-04-11T18:15:52.754Z,39.70
2023-04-11T18:18:58.639Z,50.70
2023-04-11T18:22:06.753Z,41.67
2023-04-11T18:25:12.518Z,34.75
2023-04-11T18:28:18.063Z,46.70
2023-04-11T18:31:23.533Z,45.40
2023-04-11T18:34:29.671Z,42.58
2023-04-11T18:37:38.159Z,54.35
2023-04-11T18:40:43.491Z,44.95
2023-04-11T18:43:49.208Z,52.80
2023-04-11T18:46:56.308Z,51.13
2023-04-11T18:53:13.808Z,48.67
2023-04-11T18:56:19.713Z,50.72
2023-04-11T18:59:29.111Z,50.97
2023-04-11T19:02:35.608Z,42.90
2023-04-11T19:05:41.285Z,54.85
2023-04-11T19:08:49.374Z,49.95
2023-04-11T19:11:54.559Z,46.35
2023-04-11T19:14:59.876Z,43.85
2023-04-11T19:18:06.859Z,48.83
2023-04-11T19:21:12.051Z,54.47
2023-04-11T19:24:20.524Z,47.38
2023-04-11T19:27:25.830Z,60.55
2023-04-11T19:30:32.483Z,69.63
2023-04-11T19:33:39.223Z,44.75
2023-04-11T19:36:45.190Z,42.60
2023-04-11T19:39:53.117Z,54.22
2023-04-11T19:42:58.464Z,55.40
2023-04-11T19:46:03.579Z,57.20
2023-04-11T19:49:08.850Z,61.90
2023-04-11T19:52:14.191Z,51.63
2023-04-11T19:55:22.418Z,47.42
2023-04-11T19:58:28.095Z,53.47
2023-04-11T20:01:33.682Z,54.88
2023-04-11T20:04:40.177Z,57.17
2023-04-11T20:07:45.687Z,48.20
2023-04-11T20:10:53.502Z,55.92
2023-04-11T20:13:59.141Z,56.47
2023-04-11T20:17:04.606Z,52.70
2023-04-11T20:20:12.860Z,50.97
2023-04-11T20:23:18.944Z,57.05
2023-04-11T20:26:27.535Z,56.67
2023-04-11T20:29:33.144Z,61.65
2023-04-11T20:32:38.759Z,48.38
2023-04-11T20:35:44.176Z,55.38
2023-04-11T20:38:49.504Z,49.03
2023-04-11T20:41:57.642Z,50.38
2023-04-11T20:45:06.336Z,51.10
2023-04-11T20:48:13.247Z,59.22
2023-04-11T20:51:18.453Z,64.07
2023-04-11T20:54:24.001Z,50.15
2023-04-11T20:57:33.925Z,59.45
2023-04-11T21:00:40.856Z,53.63
2023-04-11T21:03:47.240Z,58.65
2023-04-11T21:06:53.072Z,52.92
2023-04-11T21:09:58.923Z,62.78
2023-04-11T21:13:07.092Z,56.22
2023-04-11T21:16:12.739Z,57.67
2023-04-11T21:19:17.900Z,51.10
2023-04-11T21:22:23.603Z,65.47
2023-04-11T21:25:29.453Z,62.38
2023-04-11T21:28:37.367Z,56.40
2023-04-11T21:31:42.937Z,46.80
2023-04-11T21:34:48.177Z,59.75
2023-04-11T21:37:53.548Z,68.00
2023-04-11T21:40:59.683Z,66.03
2023-04-11T21:44:07.722Z,56.80
2023-04-11T21:47:13.125Z,61.08
2023-04-11T21:50:18.743Z,54.00
2023-04-11T21:53:24.031Z,59.80
2023-04-11T21:56:29.414Z,57.15
2023-04-11T21:59:37.127Z,61.47
2023-04-11T22:02:42.982Z,64.95
2023-04-11T22:05:50.511Z,66.45
2023-04-11T22:08:58.820Z,53.17
2023-04-11T22:12:04.224Z,57.22
2023-04-11T22:15:13.125Z,60.92
2023-04-11T22:18:26.801Z,70.63
2023-04-11T22:21:32.363Z,54.83
2023-04-11T22:24:38.845Z,51.50
2023-04-11T22:27:44.858Z,58.72
2023-04-11T22:30:53.132Z,55.55
2023-04-11T22:37:03.890Z,64.85
2023-04-11T22:40:12.191Z,70.68
2023-04-11T22:43:17.887Z,73.97
2023-04-11T22:46:26.172Z,60.63
2023-04-11T22:49:32.636Z,54.83
2023-04-11T22:52:38.158Z,66.35
2023-04-11T22:55:43.779Z,68.40
2023-04-11T22:58:48.951Z,52.83
2023-04-11T23:01:57.203Z,54.22
2023-04-11T23:08:08.854Z,60.45
2023-04-11T23:11:14.192Z,56.35
2023-04-11T23:14:22.702Z,64.40
2023-04-11T23:17:30.593Z,67.18
2023-04-11T23:20:38.491Z,58.42
2023-04-11T23:23:44.273Z,56.25
2023-04-11T23:26:49.439Z,53.22
2023-04-11T23:29:54.846Z,52.63
2023-04-11T23:33:03.239Z,58.10
2023-04-11T23:36:09.534Z,46.70
2023-04-11T23:39:14.862Z,62.63
2023-04-11T23:42:20.173Z,49.85
2023-04-11T23:45:25.927Z,47.90
2023-04-11T23:48:33.683Z,51.03
2023-04-11T23:51:38.955Z,51.50
2023-04-11T23:54:44.232Z,50.45
2023-04-11T23:57:50.195Z,49.58
